sensor_id;sensor_type;location;lat;lon;timestamp;P1;durP1;ratioP1;P2;durP2;ratioP2
15287;SDS011;7745;48.708;9.026;2023-12-07T00:01:25;17.20;;;12.93;;
15287;SDS011;7745;48.708;9.026;2023-12-07T00:03:52;16.43;;;12.87;;
15287;SDS011;7745;48.708;9.026;2023-12-07T00:06:19;16.03;;;12.97;;
15287;SDS011;7745;48.708;9.026;2023-12-07T00:08:45;17.63;;;13.13;;
15287;SDS011;7745;48.708;9.026;2023-12-07T00:11:12;17.60;;;13.23;;
15287;SDS011;7745;48.708;9.026;2023-12-07T00:13:40;17.13;;;13.63;;
15287;SDS011;7745;48.708;9.026;2023-12-07T00:16:07;18.87;;;13.87;;
15287;SDS011;7745;48.708;9.026;2023-12-07T00:18:34;19.07;;;13.37;;
15287;SDS011;7745;48.708;9.026;2023-12-07T00:21:01;16.97;;;12.20;;
15287;SDS011;7745;48.708;9.026;2023-12-07T00:23:27;18.77;;;13.53;;
15287;SDS011;7745;48.708;9.026;2023-12-07T00:25:54;16.47;;;12.50;;
15287;SDS011;7745;48.708;9.026;2023-12-07T00:28:21;18.10;;;12.77;;
15287;SDS011;7745;48.708;9.026;2023-12-07T00:30:49;18.77;;;13.10;;
15287;SDS011;7745;48.708;9.026;2023-12-07T00:33:16;15.83;;;12.83;;
15287;SDS011;7745;48.708;9.026;2023-12-07T00:35:43;17.53;;;13.33;;
15287;SDS011;7745;48.708;9.026;2023-12-07T00:38:09;14.50;;;11.53;;
15287;SDS011;7745;48.708;9.026;2023-12-07T00:40:36;15.73;;;12.70;;
15287;SDS011;7745;48.708;9.026;2023-12-07T00:43:04;17.63;;;12.50;;
15287;SDS011;7745;48.708;9.026;2023-12-07T00:45:31;16.67;;;12.33;;
15287;SDS011;7745;48.708;9.026;2023-12-07T00:48:00;17.63;;;12.67;;
15287;SDS011;7745;48.708;9.026;2023-12-07T00:50:27;15.13;;;12.67;;
15287;SDS011;7745;48.708;9.026;2023-12-07T00:52:53;16.53;;;12.37;;
15287;SDS011;7745;48.708;9.026;2023-12-07T00:55:20;16.93;;;12.20;;
15287;SDS011;7745;48.708;9.026;2023-12-07T00:57:47;18.60;;;13.50;;
15287;SDS011;7745;48.708;9.026;2023-12-07T01:00:14;17.10;;;12.60;;
15287;SDS011;7745;48.708;9.026;2023-12-07T01:02:41;16.13;;;12.93;;
15287;SDS011;7745;48.708;9.026;2023-12-07T01:05:09;17.17;;;12.73;;
15287;SDS011;7745;48.708;9.026;2023-12-07T01:07:36;15.80;;;11.87;;
15287;SDS011;7745;48.708;9.026;2023-12-07T01:10:03;15.33;;;11.70;;
15287;SDS011;7745;48.708;9.026;2023-12-07T01:12:31;18.50;;;13.33;;
15287;SDS011;7745;48.708;9.026;2023-12-07T01:14:57;17.33;;;12.70;;
15287;SDS011;7745;48.708;9.026;2023-12-07T01:17:24;18.17;;;13.70;;
15287;SDS011;7745;48.708;9.026;2023-12-07T01:19:51;17.47;;;14.43;;
15287;SDS011;7745;48.708;9.026;2023-12-07T01:22:19;19.47;;;15.20;;
15287;SDS011;7745;48.708;9.026;2023-12-07T01:24:46;22.57;;;16.80;;
15287;SDS011;7745;48.708;9.026;2023-12-07T01:27:13;21.30;;;15.80;;
15287;SDS011;7745;48.708;9.026;2023-12-07T01:29:40;18.70;;;15.47;;
15287;SDS011;7745;48.708;9.026;2023-12-07T01:32:06;20.60;;;17.03;;
15287;SDS011;7745;48.708;9.026;2023-12-07T01:34:33;21.87;;;16.80;;
15287;SDS011;7745;48.708;9.026;2023-12-07T01:37:00;23.30;;;16.60;;
15287;SDS011;7745;48.708;9.026;2023-12-07T01:39:28;25.23;;;18.20;;
15287;SDS011;7745;48.708;9.026;2023-12-07T01:41:55;25.80;;;19.33;;
15287;SDS011;7745;48.708;9.026;2023-12-07T01:44:22;29.10;;;20.80;;
15287;SDS011;7745;48.708;9.026;2023-12-07T01:46:49;26.87;;;19.40;;
15287;SDS011;7745;48.708;9.026;2023-12-07T01:49:15;27.53;;;22.20;;
15287;SDS011;7745;48.708;9.026;2023-12-07T01:51:42;32.77;;;23.27;;
15287;SDS011;7745;48.708;9.026;2023-12-07T01:54:09;33.13;;;25.83;;
15287;SDS011;7745;48.708;9.026;2023-12-07T01:56:37;39.17;;;27.40;;
15287;SDS011;7745;48.708;9.026;2023-12-07T01:59:04;34.83;;;24.90;;
15287;SDS011;7745;48.708;9.026;2023-12-07T02:01:31;30.37;;;23.83;;
15287;SDS011;7745;48.708;9.026;2023-12-07T02:03:58;37.77;;;24.37;;
15287;SDS011;7745;48.708;9.026;2023-12-07T02:06:25;32.23;;;22.87;;
15287;SDS011;7745;48.708;9.026;2023-12-07T02:08:52;27.27;;;19.27;;
15287;SDS011;7745;48.708;9.026;2023-12-07T02:11:19;29.43;;;19.83;;
15287;SDS011;7745;48.708;9.026;2023-12-07T02:13:47;30.60;;;19.77;;
15287;SDS011;7745;48.708;9.026;2023-12-07T02:16:17;29.93;;;19.90;;
15287;SDS011;7745;48.708;9.026;2023-12-07T02:18:52;31.23;;;20.30;;
15287;SDS011;7745;48.708;9.026;2023-12-07T02:21:28;30.07;;;19.90;;
15287;SDS011;7745;48.708;9.026;2023-12-07T02:24:00;27.13;;;20.03;;
15287;SDS011;7745;48.708;9.026;2023-12-07T02:26:31;32.63;;;20.93;;
15287;SDS011;7745;48.708;9.026;2023-12-07T02:28:58;32.30;;;21.63;;
15287;SDS011;7745;48.708;9.026;2023-12-07T02:31:25;32.30;;;21.23;;
15287;SDS011;7745;48.708;9.026;2023-12-07T02:33:52;32.40;;;21.00;;
15287;SDS011;7745;48.708;9.026;2023-12-07T02:36:19;30.17;;;19.97;;
15287;SDS011;7745;48.708;9.026;2023-12-07T02:38:48;32.57;;;19.37;;
15287;SDS011;7745;48.708;9.026;2023-12-07T02:41:17;24.10;;;16.10;;
15287;SDS011;7745;48.708;9.026;2023-12-07T02:43:46;23.57;;;16.37;;
15287;SDS011;7745;48.708;9.026;2023-12-07T02:46:13;26.13;;;16.13;;
15287;SDS011;7745;48.708;9.026;2023-12-07T02:48:40;22.07;;;14.70;;
15287;SDS011;7745;48.708;9.026;2023-12-07T02:51:07;23.37;;;15.30;;
15287;SDS011;7745;48.708;9.026;2023-12-07T02:53:33;22.47;;;14.77;;
15287;SDS011;7745;48.708;9.026;2023-12-07T02:56:00;22.60;;;14.33;;
15287;SDS011;7745;48.708;9.026;2023-12-07T02:58:27;25.90;;;15.00;;
15287;SDS011;7745;48.708;9.026;2023-12-07T03:00:55;26.60;;;15.77;;
15287;SDS011;7745;48.708;9.026;2023-12-07T03:03:22;25.20;;;15.57;;
15287;SDS011;7745;48.708;9.026;2023-12-07T03:05:49;24.63;;;15.40;;
15287;SDS011;7745;48.708;9.026;2023-12-07T03:08:16;25.80;;;15.10;;
15287;SDS011;7745;48.708;9.026;2023-12-07T03:10:42;22.03;;;15.53;;
15287;SDS011;7745;48.708;9.026;2023-12-07T03:13:09;25.57;;;15.90;;
15287;SDS011;7745;48.708;9.026;2023-12-07T03:15:36;26.40;;;16.27;;
15287;SDS011;7745;48.708;9.026;2023-12-07T03:18:04;26.93;;;16.20;;
15287;SDS011;7745;48.708;9.026;2023-12-07T03:20:32;23.33;;;15.53;;
15287;SDS011;7745;48.708;9.026;2023-12-07T03:23:00;22.57;;;14.87;;
15287;SDS011;7745;48.708;9.026;2023-12-07T03:25:26;22.90;;;14.47;;
15287;SDS011;7745;48.708;9.026;2023-12-07T03:27:53;22.00;;;14.07;;
15287;SDS011;7745;48.708;9.026;2023-12-07T03:30:20;20.27;;;13.97;;
15287;SDS011;7745;48.708;9.026;2023-12-07T03:32:47;26.50;;;15.10;;
15287;SDS011;7745;48.708;9.026;2023-12-07T03:35:15;19.00;;;13.30;;
15287;SDS011;7745;48.708;9.026;2023-12-07T03:37:42;21.80;;;13.80;;
15287;SDS011;7745;48.708;9.026;2023-12-07T03:40:09;20.43;;;12.90;;
15287;SDS011;7745;48.708;9.026;2023-12-07T03:42:36;22.13;;;12.97;;
15287;SDS011;7745;48.708;9.026;2023-12-07T03:45:02;18.43;;;12.60;;
15287;SDS011;7745;48.708;9.026;2023-12-07T03:47:29;21.10;;;13.40;;
15287;SDS011;7745;48.708;9.026;2023-12-07T03:49:56;20.13;;;13.87;;
15287;SDS011;7745;48.708;9.026;2023-12-07T03:52:24;17.67;;;12.67;;
15287;SDS011;7745;48.708;9.026;2023-12-07T03:54:51;17.43;;;11.87;;
15287;SDS011;7745;48.708;9.026;2023-12-07T03:57:18;20.90;;;13.67;;
15287;SDS011;7745;48.708;9.026;2023-12-07T03:59:45;17.53;;;12.23;;
15287;SDS011;7745;48.708;9.026;2023-12-07T04:02:12;15.37;;;11.27;;
15287;SDS011;7745;48.708;9.026;2023-12-07T04:04:41;18.13;;;13.63;;
15287;SDS011;7745;48.708;9.026;2023-12-07T04:07:07;17.17;;;12.10;;
15287;SDS011;7745;48.708;9.026;2023-12-07T04:09:36;21.17;;;11.73;;
15287;SDS011;7745;48.708;9.026;2023-12-07T04:12:03;15.23;;;10.73;;
15287;SDS011;7745;48.708;9.026;2023-12-07T04:14:30;17.27;;;11.60;;
15287;SDS011;7745;48.708;9.026;2023-12-07T04:16:56;15.20;;;10.97;;
15287;SDS011;7745;48.708;9.026;2023-12-07T04:19:23;17.80;;;11.97;;
15287;SDS011;7745;48.708;9.026;2023-12-07T04:21:50;16.63;;;11.33;;
15287;SDS011;7745;48.708;9.026;2023-12-07T04:24:17;17.07;;;11.47;;
15287;SDS011;7745;48.708;9.026;2023-12-07T04:26:45;17.43;;;11.80;;
15287;SDS011;7745;48.708;9.026;2023-12-07T04:29:14;13.90;;;10.57;;
15287;SDS011;7745;48.708;9.026;2023-12-07T04:31:40;16.80;;;10.87;;
15287;SDS011;7745;48.708;9.026;2023-12-07T04:34:07;13.30;;;10.27;;
15287;SDS011;7745;48.708;9.026;2023-12-07T04:36:34;17.30;;;11.00;;
15287;SDS011;7745;48.708;9.026;2023-12-07T04:39:01;17.00;;;11.47;;
15287;SDS011;7745;48.708;9.026;2023-12-07T04:41:28;14.37;;;10.03;;
15287;SDS011;7745;48.708;9.026;2023-12-07T04:43:56;13.60;;;10.00;;
15287;SDS011;7745;48.708;9.026;2023-12-07T04:46:23;16.20;;;10.47;;
15287;SDS011;7745;48.708;9.026;2023-12-07T04:48:50;14.60;;;10.03;;
15287;SDS011;7745;48.708;9.026;2023-12-07T04:51:17;13.27;;;9.70;;
15287;SDS011;7745;48.708;9.026;2023-12-07T04:53:44;15.43;;;10.87;;
15287;SDS011;7745;48.708;9.026;2023-12-07T04:56:10;12.80;;;9.63;;
15287;SDS011;7745;48.708;9.026;2023-12-07T04:58:37;13.83;;;10.13;;
15287;SDS011;7745;48.708;9.026;2023-12-07T05:01:05;14.40;;;10.30;;
15287;SDS011;7745;48.708;9.026;2023-12-07T05:03:32;12.07;;;8.97;;
15287;SDS011;7745;48.708;9.026;2023-12-07T05:05:59;13.00;;;9.40;;
15287;SDS011;7745;48.708;9.026;2023-12-07T05:08:25;16.57;;;9.93;;
15287;SDS011;7745;48.708;9.026;2023-12-07T05:10:52;15.10;;;10.50;;
15287;SDS011;7745;48.708;9.026;2023-12-07T05:13:19;16.13;;;10.20;;
15287;SDS011;7745;48.708;9.026;2023-12-07T05:15:46;18.63;;;12.03;;
15287;SDS011;7745;48.708;9.026;2023-12-07T05:18:14;15.97;;;10.90;;
15287;SDS011;7745;48.708;9.026;2023-12-07T05:20:41;15.43;;;10.47;;
15287;SDS011;7745;48.708;9.026;2023-12-07T05:23:08;13.43;;;10.27;;
15287;SDS011;7745;48.708;9.026;2023-12-07T05:25:34;17.80;;;11.70;;
15287;SDS011;7745;48.708;9.026;2023-12-07T05:28:01;13.93;;;9.23;;
15287;SDS011;7745;48.708;9.026;2023-12-07T05:30:28;14.43;;;9.17;;
15287;SDS011;7745;48.708;9.026;2023-12-07T05:32:55;12.90;;;9.33;;
15287;SDS011;7745;48.708;9.026;2023-12-07T05:35:23;13.13;;;9.27;;
15287;SDS011;7745;48.708;9.026;2023-12-07T05:37:50;13.03;;;8.93;;
15287;SDS011;7745;48.708;9.026;2023-12-07T05:40:17;12.27;;;8.93;;
15287;SDS011;7745;48.708;9.026;2023-12-07T05:42:44;12.83;;;9.47;;
15287;SDS011;7745;48.708;9.026;2023-12-07T05:45:13;14.73;;;9.30;;
15287;SDS011;7745;48.708;9.026;2023-12-07T05:47:41;13.97;;;9.30;;
15287;SDS011;7745;48.708;9.026;2023-12-07T05:50:07;14.20;;;9.57;;
15287;SDS011;7745;48.708;9.026;2023-12-07T05:52:36;13.90;;;9.30;;
15287;SDS011;7745;48.708;9.026;2023-12-07T05:55:03;14.70;;;10.63;;
15287;SDS011;7745;48.708;9.026;2023-12-07T05:57:31;15.87;;;10.77;;
15287;SDS011;7745;48.708;9.026;2023-12-07T05:59:58;16.50;;;11.23;;
15287;SDS011;7745;48.708;9.026;2023-12-07T06:02:25;16.13;;;10.13;;
15287;SDS011;7745;48.708;9.026;2023-12-07T06:04:51;14.27;;;10.57;;
15287;SDS011;7745;48.708;9.026;2023-12-07T06:07:18;12.87;;;10.10;;
15287;SDS011;7745;48.708;9.026;2023-12-07T06:09:46;14.43;;;10.07;;
15287;SDS011;7745;48.708;9.026;2023-12-07T06:12:13;14.13;;;10.57;;
15287;SDS011;7745;48.708;9.026;2023-12-07T06:14:40;12.73;;;10.30;;
15287;SDS011;7745;48.708;9.026;2023-12-07T06:17:07;14.50;;;10.77;;
15287;SDS011;7745;48.708;9.026;2023-12-07T06:19:34;13.47;;;10.50;;
15287;SDS011;7745;48.708;9.026;2023-12-07T06:22:00;14.67;;;11.00;;
15287;SDS011;7745;48.708;9.026;2023-12-07T06:24:27;13.40;;;9.90;;
15287;SDS011;7745;48.708;9.026;2023-12-07T06:26:55;14.63;;;10.47;;
15287;SDS011;7745;48.708;9.026;2023-12-07T06:29:22;16.97;;;10.87;;
15287;SDS011;7745;48.708;9.026;2023-12-07T06:31:49;15.87;;;9.93;;
15287;SDS011;7745;48.708;9.026;2023-12-07T06:34:16;17.27;;;11.90;;
15287;SDS011;7745;48.708;9.026;2023-12-07T06:36:43;18.10;;;11.53;;
15287;SDS011;7745;48.708;9.026;2023-12-07T06:39:10;18.27;;;11.23;;
15287;SDS011;7745;48.708;9.026;2023-12-07T06:41:36;19.73;;;11.57;;
15287;SDS011;7745;48.708;9.026;2023-12-07T06:44:05;16.47;;;11.63;;
15287;SDS011;7745;48.708;9.026;2023-12-07T06:46:33;18.73;;;11.97;;
15287;SDS011;7745;48.708;9.026;2023-12-07T06:49:00;18.50;;;12.30;;
15287;SDS011;7745;48.708;9.026;2023-12-07T06:51:27;20.33;;;11.77;;
15287;SDS011;7745;48.708;9.026;2023-12-07T06:53:53;17.17;;;12.17;;
15287;SDS011;7745;48.708;9.026;2023-12-07T06:56:20;19.97;;;13.40;;
15287;SDS011;7745;48.708;9.026;2023-12-07T06:58:47;13.73;;;10.67;;
15287;SDS011;7745;48.708;9.026;2023-12-07T07:01:15;19.07;;;13.10;;
15287;SDS011;7745;48.708;9.026;2023-12-07T07:03:42;16.40;;;10.90;;
15287;SDS011;7745;48.708;9.026;2023-12-07T07:06:08;17.10;;;11.57;;
15287;SDS011;7745;48.708;9.026;2023-12-07T07:08:35;18.33;;;11.47;;
15287;SDS011;7745;48.708;9.026;2023-12-07T07:11:08;17.83;;;11.40;;
15287;SDS011;7745;48.708;9.026;2023-12-07T07:13:36;17.27;;;11.97;;
15287;SDS011;7745;48.708;9.026;2023-12-07T07:16:03;19.03;;;13.00;;
15287;SDS011;7745;48.708;9.026;2023-12-07T07:18:32;18.43;;;12.57;;
15287;SDS011;7745;48.708;9.026;2023-12-07T07:21:00;22.17;;;14.37;;
15287;SDS011;7745;48.708;9.026;2023-12-07T07:23:29;21.87;;;14.13;;
15287;SDS011;7745;48.708;9.026;2023-12-07T07:25:55;24.97;;;16.33;;
15287;SDS011;7745;48.708;9.026;2023-12-07T07:28:22;27.70;;;17.27;;
15287;SDS011;7745;48.708;9.026;2023-12-07T07:30:49;26.27;;;14.93;;
15287;SDS011;7745;48.708;9.026;2023-12-07T07:33:16;29.50;;;17.07;;
15287;SDS011;7745;48.708;9.026;2023-12-07T07:35:44;31.07;;;19.40;;
15287;SDS011;7745;48.708;9.026;2023-12-07T07:38:11;22.90;;;14.60;;
15287;SDS011;7745;48.708;9.026;2023-12-07T07:40:39;21.20;;;13.33;;
15287;SDS011;7745;48.708;9.026;2023-12-07T07:43:06;19.97;;;13.50;;
15287;SDS011;7745;48.708;9.026;2023-12-07T07:45:33;19.07;;;12.40;;
15287;SDS011;7745;48.708;9.026;2023-12-07T07:48:01;17.23;;;12.53;;
15287;SDS011;7745;48.708;9.026;2023-12-07T07:50:27;17.80;;;10.87;;
15287;SDS011;7745;48.708;9.026;2023-12-07T07:52:55;14.27;;;10.47;;
15287;SDS011;7745;48.708;9.026;2023-12-07T07:55:22;15.57;;;11.13;;
15287;SDS011;7745;48.708;9.026;2023-12-07T07:57:49;16.27;;;11.43;;
15287;SDS011;7745;48.708;9.026;2023-12-07T08:00:16;27.17;;;15.37;;
15287;SDS011;7745;48.708;9.026;2023-12-07T08:02:44;19.93;;;11.67;;
15287;SDS011;7745;48.708;9.026;2023-12-07T08:05:11;15.07;;;9.93;;
15287;SDS011;7745;48.708;9.026;2023-12-07T08:07:38;14.37;;;10.00;;
15287;SDS011;7745;48.708;9.026;2023-12-07T08:10:07;16.17;;;11.00;;
15287;SDS011;7745;48.708;9.026;2023-12-07T08:12:34;17.13;;;9.97;;
15287;SDS011;7745;48.708;9.026;2023-12-07T08:15:01;20.40;;;11.23;;
15287;SDS011;7745;48.708;9.026;2023-12-07T08:17:29;18.97;;;11.70;;
15287;SDS011;7745;48.708;9.026;2023-12-07T08:19:56;19.93;;;12.23;;
15287;SDS011;7745;48.708;9.026;2023-12-07T08:22:24;20.57;;;13.47;;
15287;SDS011;7745;48.708;9.026;2023-12-07T08:24:51;18.17;;;13.07;;
15287;SDS011;7745;48.708;9.026;2023-12-07T08:27:19;18.27;;;12.23;;
15287;SDS011;7745;48.708;9.026;2023-12-07T08:29:46;18.60;;;12.27;;
15287;SDS011;7745;48.708;9.026;2023-12-07T08:32:12;28.73;;;14.60;;
15287;SDS011;7745;48.708;9.026;2023-12-07T08:34:40;31.93;;;17.20;;
15287;SDS011;7745;48.708;9.026;2023-12-07T08:37:07;33.40;;;18.37;;
15287;SDS011;7745;48.708;9.026;2023-12-07T08:39:34;23.67;;;14.57;;
15287;SDS011;7745;48.708;9.026;2023-12-07T08:42:01;20.73;;;13.67;;
15287;SDS011;7745;48.708;9.026;2023-12-07T08:44:29;23.03;;;14.77;;
15287;SDS011;7745;48.708;9.026;2023-12-07T08:46:56;26.83;;;14.17;;
15287;SDS011;7745;48.708;9.026;2023-12-07T08:49:23;26.07;;;14.33;;
15287;SDS011;7745;48.708;9.026;2023-12-07T08:51:51;23.13;;;14.10;;
15287;SDS011;7745;48.708;9.026;2023-12-07T08:54:18;27.17;;;15.10;;
15287;SDS011;7745;48.708;9.026;2023-12-07T08:56:45;32.07;;;16.60;;
15287;SDS011;7745;48.708;9.026;2023-12-07T08:59:12;34.83;;;16.17;;
15287;SDS011;7745;48.708;9.026;2023-12-07T09:01:40;27.77;;;15.47;;
15287;SDS011;7745;48.708;9.026;2023-12-07T09:04:07;22.03;;;13.47;;
15287;SDS011;7745;48.708;9.026;2023-12-07T09:06:34;19.43;;;11.70;;
15287;SDS011;7745;48.708;9.026;2023-12-07T09:09:02;19.53;;;13.00;;
15287;SDS011;7745;48.708;9.026;2023-12-07T09:11:29;16.00;;;12.03;;
15287;SDS011;7745;48.708;9.026;2023-12-07T09:13:56;17.60;;;12.90;;
15287;SDS011;7745;48.708;9.026;2023-12-07T09:16:23;17.17;;;12.30;;
15287;SDS011;7745;48.708;9.026;2023-12-07T09:18:52;17.50;;;12.07;;
15287;SDS011;7745;48.708;9.026;2023-12-07T09:21:19;15.90;;;11.63;;
15287;SDS011;7745;48.708;9.026;2023-12-07T09:23:46;17.77;;;11.57;;
15287;SDS011;7745;48.708;9.026;2023-12-07T09:26:13;16.33;;;11.93;;
15287;SDS011;7745;48.708;9.026;2023-12-07T09:28:39;21.30;;;12.57;;
15287;SDS011;7745;48.708;9.026;2023-12-07T09:31:06;15.20;;;11.10;;
15287;SDS011;7745;48.708;9.026;2023-12-07T09:33:33;16.80;;;10.37;;
15287;SDS011;7745;48.708;9.026;2023-12-07T09:36:01;17.77;;;11.20;;
15287;SDS011;7745;48.708;9.026;2023-12-07T09:38:33;13.50;;;10.33;;
15287;SDS011;7745;48.708;9.026;2023-12-07T09:41:02;12.87;;;10.10;;
15287;SDS011;7745;48.708;9.026;2023-12-07T09:43:28;12.30;;;9.50;;
15287;SDS011;7745;48.708;9.026;2023-12-07T09:45:55;13.00;;;9.77;;
15287;SDS011;7745;48.708;9.026;2023-12-07T09:48:24;13.07;;;10.37;;
15287;SDS011;7745;48.708;9.026;2023-12-07T09:50:51;15.43;;;10.67;;
15287;SDS011;7745;48.708;9.026;2023-12-07T09:53:22;12.43;;;9.97;;
15287;SDS011;7745;48.708;9.026;2023-12-07T09:55:49;15.20;;;10.33;;
15287;SDS011;7745;48.708;9.026;2023-12-07T09:58:16;11.30;;;9.17;;
15287;SDS011;7745;48.708;9.026;2023-12-07T10:00:43;14.30;;;9.17;;
15287;SDS011;7745;48.708;9.026;2023-12-07T10:03:12;10.00;;;7.40;;
15287;SDS011;7745;48.708;9.026;2023-12-07T10:05:53;8.00;;;6.57;;
15287;SDS011;7745;48.708;9.026;2023-12-07T10:08:29;9.17;;;7.03;;
15287;SDS011;7745;48.708;9.026;2023-12-07T10:11:03;7.33;;;5.83;;
15287;SDS011;7745;48.708;9.026;2023-12-07T10:13:31;6.57;;;4.20;;
15287;SDS011;7745;48.708;9.026;2023-12-07T10:16:05;7.17;;;4.97;;
15287;SDS011;7745;48.708;9.026;2023-12-07T10:18:34;7.10;;;4.20;;
15287;SDS011;7745;48.708;9.026;2023-12-07T10:21:01;9.80;;;4.73;;
15287;SDS011;7745;48.708;9.026;2023-12-07T10:23:30;6.17;;;4.20;;
15287;SDS011;7745;48.708;9.026;2023-12-07T10:25:58;5.93;;;3.80;;
15287;SDS011;7745;48.708;9.026;2023-12-07T10:28:25;7.03;;;3.43;;
15287;SDS011;7745;48.708;9.026;2023-12-07T10:30:52;6.57;;;3.77;;
15287;SDS011;7745;48.708;9.026;2023-12-07T10:33:19;3.83;;;3.20;;
15287;SDS011;7745;48.708;9.026;2023-12-07T10:35:46;4.63;;;3.63;;
15287;SDS011;7745;48.708;9.026;2023-12-07T10:38:15;4.40;;;3.20;;
15287;SDS011;7745;48.708;9.026;2023-12-07T10:40:44;6.13;;;3.63;;
15287;SDS011;7745;48.708;9.026;2023-12-07T10:43:13;5.27;;;3.80;;
15287;SDS011;7745;48.708;9.026;2023-12-07T10:45:42;4.63;;;3.40;;
15287;SDS011;7745;48.708;9.026;2023-12-07T10:48:10;6.37;;;3.73;;
15287;SDS011;7745;48.708;9.026;2023-12-07T10:50:38;4.20;;;3.20;;
15287;SDS011;7745;48.708;9.026;2023-12-07T10:53:09;5.30;;;3.60;;
15287;SDS011;7745;48.708;9.026;2023-12-07T10:55:41;5.13;;;3.93;;
15287;SDS011;7745;48.708;9.026;2023-12-07T10:58:13;5.57;;;4.27;;
15287;SDS011;7745;48.708;9.026;2023-12-07T11:00:42;5.40;;;4.53;;
15287;SDS011;7745;48.708;9.026;2023-12-07T11:03:13;6.37;;;4.20;;
15287;SDS011;7745;48.708;9.026;2023-12-07T11:05:42;5.30;;;4.33;;
15287;SDS011;7745;48.708;9.026;2023-12-07T11:08:11;6.27;;;4.40;;
15287;SDS011;7745;48.708;9.026;2023-12-07T11:10:45;6.17;;;4.60;;
15287;SDS011;7745;48.708;9.026;2023-12-07T11:13:20;5.33;;;4.57;;
15287;SDS011;7745;48.708;9.026;2023-12-07T11:15:53;6.80;;;4.73;;
15287;SDS011;7745;48.708;9.026;2023-12-07T11:18:20;6.60;;;4.37;;
15287;SDS011;7745;48.708;9.026;2023-12-07T11:20:47;6.00;;;4.33;;
15287;SDS011;7745;48.708;9.026;2023-12-07T11:23:15;6.57;;;4.10;;
15287;SDS011;7745;48.708;9.026;2023-12-07T11:25:45;5.87;;;3.83;;
15287;SDS011;7745;48.708;9.026;2023-12-07T11:28:12;6.27;;;4.47;;
15287;SDS011;7745;48.708;9.026;2023-12-07T11:30:41;9.43;;;4.50;;
15287;SDS011;7745;48.708;9.026;2023-12-07T11:33:10;8.77;;;4.97;;
15287;SDS011;7745;48.708;9.026;2023-12-07T11:38:29;5.17;;;4.03;;
15287;SDS011;7745;48.708;9.026;2023-12-07T11:40:57;6.37;;;3.80;;
15287;SDS011;7745;48.708;9.026;2023-12-07T11:43:31;6.47;;;4.33;;
15287;SDS011;7745;48.708;9.026;2023-12-07T11:46:04;7.63;;;3.97;;
15287;SDS011;7745;48.708;9.026;2023-12-07T11:48:32;6.67;;;3.87;;
15287;SDS011;7745;48.708;9.026;2023-12-07T11:51:00;5.80;;;3.23;;
15287;SDS011;7745;48.708;9.026;2023-12-07T11:53:28;9.17;;;3.73;;
15287;SDS011;7745;48.708;9.026;2023-12-07T11:55:57;5.50;;;3.57;;
15287;SDS011;7745;48.708;9.026;2023-12-07T11:58:25;6.80;;;3.57;;
15287;SDS011;7745;48.708;9.026;2023-12-07T12:00:53;6.13;;;3.30;;
15287;SDS011;7745;48.708;9.026;2023-12-07T12:03:21;6.03;;;3.40;;
15287;SDS011;7745;48.708;9.026;2023-12-07T12:05:48;5.60;;;3.27;;
15287;SDS011;7745;48.708;9.026;2023-12-07T12:08:15;7.57;;;3.40;;
15287;SDS011;7745;48.708;9.026;2023-12-07T12:10:42;5.40;;;2.97;;
15287;SDS011;7745;48.708;9.026;2023-12-07T12:13:11;8.33;;;3.00;;
15287;SDS011;7745;48.708;9.026;2023-12-07T12:15:38;7.10;;;2.80;;
15287;SDS011;7745;48.708;9.026;2023-12-07T12:18:06;6.20;;;3.83;;
15287;SDS011;7745;48.708;9.026;2023-12-07T12:20:33;8.07;;;3.50;;
15287;SDS011;7745;48.708;9.026;2023-12-07T12:23:00;3.47;;;2.93;;
15287;SDS011;7745;48.708;9.026;2023-12-07T12:25:27;5.70;;;3.27;;
15287;SDS011;7745;48.708;9.026;2023-12-07T12:27:56;5.53;;;3.07;;
15287;SDS011;7745;48.708;9.026;2023-12-07T12:30:27;5.17;;;3.20;;
15287;SDS011;7745;48.708;9.026;2023-12-07T12:32:55;5.70;;;2.90;;
15287;SDS011;7745;48.708;9.026;2023-12-07T12:35:22;5.23;;;2.90;;
15287;SDS011;7745;48.708;9.026;2023-12-07T12:37:50;10.70;;;3.83;;
15287;SDS011;7745;48.708;9.026;2023-12-07T12:40:17;3.60;;;2.90;;
15287;SDS011;7745;48.708;9.026;2023-12-07T12:42:45;4.80;;;3.00;;
15287;SDS011;7745;48.708;9.026;2023-12-07T12:45:13;4.50;;;3.30;;
15287;SDS011;7745;48.708;9.026;2023-12-07T12:47:42;4.27;;;3.20;;
15287;SDS011;7745;48.708;9.026;2023-12-07T12:50:10;6.70;;;3.57;;
15287;SDS011;7745;48.708;9.026;2023-12-07T12:52:37;5.13;;;3.20;;
15287;SDS011;7745;48.708;9.026;2023-12-07T12:55:07;8.83;;;3.13;;
15287;SDS011;7745;48.708;9.026;2023-12-07T12:57:35;5.70;;;3.10;;
15287;SDS011;7745;48.708;9.026;2023-12-07T13:00:03;8.70;;;3.80;;
15287;SDS011;7745;48.708;9.026;2023-12-07T13:02:32;5.57;;;3.10;;
15287;SDS011;7745;48.708;9.026;2023-12-07T13:05:00;5.37;;;3.17;;
15287;SDS011;7745;48.708;9.026;2023-12-07T13:07:27;3.80;;;2.63;;
15287;SDS011;7745;48.708;9.026;2023-12-07T13:09:54;4.47;;;3.00;;
15287;SDS011;7745;48.708;9.026;2023-12-07T13:12:21;6.00;;;3.20;;
15287;SDS011;7745;48.708;9.026;2023-12-07T13:14:48;7.17;;;3.13;;
15287;SDS011;7745;48.708;9.026;2023-12-07T13:17:15;3.60;;;3.00;;
15287;SDS011;7745;48.708;9.026;2023-12-07T13:19:42;8.57;;;3.50;;
15287;SDS011;7745;48.708;9.026;2023-12-07T13:22:10;5.57;;;3.07;;
15287;SDS011;7745;48.708;9.026;2023-12-07T13:24:37;11.73;;;3.50;;
15287;SDS011;7745;48.708;9.026;2023-12-07T13:27:04;6.40;;;3.37;;
15287;SDS011;7745;48.708;9.026;2023-12-07T13:29:31;7.13;;;3.73;;
15287;SDS011;7745;48.708;9.026;2023-12-07T13:31:58;6.47;;;3.83;;
15287;SDS011;7745;48.708;9.026;2023-12-07T13:34:26;9.23;;;4.30;;
15287;SDS011;7745;48.708;9.026;2023-12-07T13:36:53;9.97;;;3.53;;
15287;SDS011;7745;48.708;9.026;2023-12-07T13:39:21;5.43;;;2.80;;
15287;SDS011;7745;48.708;9.026;2023-12-07T13:41:48;5.07;;;3.47;;
15287;SDS011;7745;48.708;9.026;2023-12-07T13:44:15;8.40;;;3.53;;
15287;SDS011;7745;48.708;9.026;2023-12-07T13:46:43;7.80;;;3.30;;
15287;SDS011;7745;48.708;9.026;2023-12-07T13:49:10;8.63;;;4.97;;
15287;SDS011;7745;48.708;9.026;2023-12-07T13:51:39;7.60;;;4.00;;
15287;SDS011;7745;48.708;9.026;2023-12-07T13:54:06;7.50;;;4.03;;
15287;SDS011;7745;48.708;9.026;2023-12-07T13:56:34;4.47;;;3.57;;
15287;SDS011;7745;48.708;9.026;2023-12-07T13:59:01;8.43;;;3.53;;
15287;SDS011;7745;48.708;9.026;2023-12-07T14:01:28;5.47;;;3.10;;
15287;SDS011;7745;48.708;9.026;2023-12-07T14:03:56;4.63;;;2.83;;
15287;SDS011;7745;48.708;9.026;2023-12-07T14:06:24;6.40;;;2.80;;
15287;SDS011;7745;48.708;9.026;2023-12-07T14:08:51;10.33;;;3.50;;
15287;SDS011;7745;48.708;9.026;2023-12-07T14:11:18;11.37;;;3.63;;
15287;SDS011;7745;48.708;9.026;2023-12-07T14:13:46;7.90;;;3.73;;
15287;SDS011;7745;48.708;9.026;2023-12-07T14:16:13;11.37;;;4.20;;
15287;SDS011;7745;48.708;9.026;2023-12-07T14:18:40;7.10;;;3.50;;
15287;SDS011;7745;48.708;9.026;2023-12-07T14:21:07;9.57;;;3.60;;
15287;SDS011;7745;48.708;9.026;2023-12-07T14:23:34;10.37;;;4.17;;
15287;SDS011;7745;48.708;9.026;2023-12-07T14:26:01;9.93;;;4.20;;
15287;SDS011;7745;48.708;9.026;2023-12-07T14:28:27;13.60;;;3.90;;
15287;SDS011;7745;48.708;9.026;2023-12-07T14:30:57;27.73;;;6.23;;
15287;SDS011;7745;48.708;9.026;2023-12-07T14:33:24;19.33;;;4.50;;
15287;SDS011;7745;48.708;9.026;2023-12-07T14:35:51;19.10;;;5.23;;
15287;SDS011;7745;48.708;9.026;2023-12-07T14:38:17;14.20;;;4.27;;
15287;SDS011;7745;48.708;9.026;2023-12-07T14:40:44;10.47;;;4.43;;
15287;SDS011;7745;48.708;9.026;2023-12-07T14:43:11;25.33;;;5.13;;
15287;SDS011;7745;48.708;9.026;2023-12-07T14:45:38;19.83;;;4.87;;
15287;SDS011;7745;48.708;9.026;2023-12-07T14:48:06;14.90;;;4.73;;